Time;durP1;ratioP1;P1;durP2;ratioP2;P2;SDS_P1;SDS_P2;PMS_P1;PMS_P2;Temp;Humidity;BMP_temperature;BMP_pressure;BME280_temperature;BME280_humidity;BME280_pressure;Samples;Min_cycle;Max_cycle;Signal;HPM_P1;HPM_P2
2023/12/29 00:01:30;;;;;;;2.60;1.80;;;11.70;95.20;;;12.07;58.56;98771.28;4888123;28;114027;-76
2023/12/29 00:03:57;;;;;;;2.23;1.73;;;14.30;96.20;;;12.05;58.24;98756.94;4860450;28;122456;-77
2023/12/29 00:06:23;;;;;;;2.27;1.80;;;11.70;95.10;;;12.04;58.30;98753.34;4881174;28;123760;-77
2023/12/29 00:08:50;;;;;;;2.10;1.90;;;11.70;95.10;;;12.02;58.19;98752.06;4890693;28;115280;-77
2023/12/29 00:11:20;;;;;;;2.47;1.87;;;14.40;96.40;;;12.04;58.36;98753.34;4876624;28;114196;-77
2023/12/29 00:13:47;;;;;;;3.00;2.23;;;14.00;96.00;;;12.05;58.28;98759.72;4868015;28;124087;-76
2023/12/29 00:16:15;;;;;;;5.60;1.77;;;12.90;95.60;;;12.04;58.30;98758.09;4891226;28;123714;-77
2023/12/29 00:18:41;;;;;;;3.17;1.97;;;12.70;95.30;;;12.06;58.09;98761.31;4870289;28;113902;-76
2023/12/29 00:21:08;;;;;;;2.50;1.93;;;10.40;94.50;;;12.09;58.13;98768.97;4885244;28;113961;-77
2023/12/29 00:23:35;;;;;;;3.63;2.70;;;13.20;95.60;;;12.10;58.14;98762.31;4889684;28;124296;-77
2023/12/29 00:26:01;;;;;;;2.93;1.73;;;13.10;95.50;;;12.11;57.90;98758.41;4887675;28;123838;-76
2023/12/29 00:28:28;;;;;;;5.00;2.30;;;13.70;95.80;;;12.13;57.99;98747.81;4887578;28;114221;-76
2023/12/29 00:30:57;;;;;;;2.70;2.07;;;14.30;96.00;;;12.14;57.83;98750.28;4891657;28;113758;-76
2023/12/29 00:33:24;;;;;;;3.77;2.33;;;14.60;96.00;;;12.13;57.45;98754.19;4890482;28;124147;-76
2023/12/29 00:35:51;;;;;;;2.77;2.10;;;12.60;95.20;;;12.13;57.80;98748.63;4887558;28;123941;-76
2023/12/29 00:38:17;;;;;;;1.97;1.77;;;14.50;95.90;;;12.15;57.47;98759.41;4888599;28;114354;-76
2023/12/29 00:40:44;;;;;;;3.63;1.93;;;14.20;95.70;;;12.14;57.41;98746.69;4874520;28;114986;-77
2023/12/29 00:43:11;;;;;;;2.77;2.13;;;13.70;95.40;;;12.13;57.29;98743.09;4879159;28;124111;-77
2023/12/29 00:45:38;;;;;;;2.70;1.80;;;11.30;94.40;;;12.14;57.27;98746.69;4891099;28;123715;-78
2023/12/29 00:48:04;;;;;;;4.00;2.17;;;11.80;94.60;;;12.14;57.26;98738.38;4872213;28;113807;-77
2023/12/29 00:50:32;;;;;;;2.20;2.00;;;11.80;94.50;;;12.15;57.34;98745.56;4892866;28;114257;-77
2023/12/29 00:52:59;;;;;;;6.50;2.30;;;13.50;95.20;;;12.15;57.19;98745.56;4888062;28;124558;-77
2023/12/29 00:55:25;;;;;;;2.60;2.17;;;11.90;94.60;;;12.14;57.37;98743.91;4890966;28;123803;-77
2023/12/29 00:57:52;;;;;;;2.43;1.90;;;11.80;94.50;;;12.14;57.30;98752.22;4887557;28;115299;-77
2023/12/29 01:00:18;;;;;;;2.33;1.60;;;11.80;94.60;;;12.17;57.42;98759.91;4890198;28;115133;-77
2023/12/29 01:02:47;;;;;;;3.83;1.93;;;11.80;94.50;;;12.17;57.54;98759.91;4855866;28;124822;-77
2023/12/29 01:05:17;;;;;;;1.80;1.70;;;14.50;95.60;;;12.17;57.52;98765.44;4877769;28;122934;-77
2023/12/29 01:07:44;;;;;;;4.33;2.30;;;13.20;95.10;;;12.17;57.21;98770.97;4851094;28;114185;-77
2023/12/29 01:10:10;;;;;;;4.83;2.00;;;11.80;94.50;;;12.20;57.47;98759.25;4890429;28;114090;-77
2023/12/29 01:12:39;;;;;;;2.60;1.90;;;11.90;94.60;;;12.20;57.40;98762.03;4888835;28;123990;-77
2023/12/29 01:15:06;;;;;;;2.03;1.80;;;11.90;94.60;;;12.19;57.41;98774.22;4889336;28;123199;-77
2023/12/29 01:17:33;;;;;;;2.07;1.70;;;11.90;94.50;;;12.19;57.49;98767.88;4884491;28;114343;-77
2023/12/29 01:19:59;;;;;;;3.87;2.33;;;13.20;95.10;;;12.18;57.11;98761.53;4864707;28;113773;-77
2023/12/29 01:22:26;;;;;;;4.70;2.50;;;11.90;94.50;;;12.20;56.99;98764.78;4870808;28;123150;-77
2023/12/29 01:24:52;;;;;;;3.67;2.30;;;14.00;95.40;;;12.20;57.06;98759.25;4888645;28;123632;-77
2023/12/29 01:27:19;;;;;;;2.47;2.10;;;11.90;94.50;;;12.20;56.91;98748.16;4890945;28;114091;-77
2023/12/29 01:29:48;;;;;;;3.83;2.20;;;11.90;94.30;;;12.19;57.21;98745.72;4883596;28;113693;-77
2023/12/29 01:32:14;;;;;;;3.40;2.17;;;11.80;94.30;;;12.21;56.96;98751.75;4876144;28;124087;-79
2023/12/29 01:34:42;;;;;;;2.30;2.00;;;11.90;94.20;;;12.23;56.65;98757.78;4873370;28;124013;-77
2023/12/29 01:37:08;;;;;;;2.17;1.90;;;14.00;95.10;;;12.22;56.63;98761.69;4877753;28;113143;-77
2023/12/29 01:39:35;;;;;;;3.40;2.10;;;12.50;94.40;;;12.19;56.50;98763.13;4892328;28;114868;-77
2023/12/29 01:42:01;;;;;;;3.23;2.10;;;14.60;95.20;;;12.21;56.55;98766.41;4885831;28;122085;-77
2023/12/29 01:44:28;;;;;;;3.27;2.20;;;11.90;94.00;;;12.18;56.64;98771.78;4889486;28;123905;-77
2023/12/29 01:46:59;;;;;;;2.70;2.13;;;14.80;95.20;;;12.19;56.37;98757.59;4877539;28;114527;-78
2023/12/29 01:49:26;;;;;;;3.17;2.60;;;11.90;93.90;;;12.20;56.60;98758.41;4896704;28;113910;-77
2023/12/29 01:51:58;;;;;;;4.97;2.60;;;11.80;93.90;;;12.19;56.32;98745.72;4864183;28;122801;-78
2023/12/29 01:54:30;;;;;;;3.27;2.50;;;14.80;95.10;;;12.18;56.59;98744.91;4876293;28;124086;-77
2023/12/29 01:57:02;;;;;;;5.63;2.30;;;13.40;94.50;;;12.22;56.46;98767.22;4865596;28;113361;-78
2023/12/29 01:59:31;;;;;;;3.63;2.37;;;14.30;94.90;;;12.21;56.11;98747.03;4877615;28;113585;-78
2023/12/29 02:02:01;;;;;;;5.23;2.43;;;14.70;95.10;;;12.24;56.34;98751.91;4866428;28;124821;-79
2023/12/29 02:04:28;;;;;;;3.37;2.57;;;11.90;93.90;;;12.24;56.16;98731.69;4898536;28;123833;-78
2023/12/29 02:06:55;;;;;;;3.63;2.10;;;11.90;94.00;;;12.25;56.50;98731.38;4888681;28;113517;-78
2023/12/29 02:09:25;;;;;;;2.80;2.30;;;14.50;95.10;;;12.26;56.37;98732.19;4893698;28;113297;-77
2023/12/29 02:11:54;;;;;;;4.60;2.43;;;14.20;94.90;;;12.27;55.88;98733.81;4890513;28;124199;-77
2023/12/29 02:14:21;;;;;;;3.30;2.40;;;14.90;95.10;;;12.25;56.63;98736.94;4892065;28;124573;-77
2023/12/29 02:17:09;;;;;;;4.00;2.37;;;12.70;94.40;;;12.24;56.46;98738.06;4892935;28;114047;-77
2023/12/29 02:19:43;;;;;;;4.60;2.20;;;11.90;93.90;;;12.24;56.43;98735.28;4893412;28;113717;-77
2023/12/29 02:22:10;;;;;;;2.00;1.80;;;13.20;94.50;;;12.21;56.34;98726.81;4891353;28;124168;-77
2023/12/29 02:24:39;;;;;;;3.20;2.53;;;12.10;94.00;;;12.22;56.50;98732.00;4876996;28;123991;-77
2023/12/29 02:27:39;;;;;;;3.17;1.77;;;13.10;94.40;;;12.21;56.54;98722.09;4874877;28;114055;-77
2023/12/29 02:30:30;;;;;;;2.10;1.90;;;11.90;93.90;;;12.22;56.40;98714.59;4856682;28;114652;-77
2023/12/29 02:33:03;;;;;;;4.27;2.33;;;11.90;93.90;;;12.22;56.42;98729.25;4865568;28;123922;-76
2023/12/29 02:35:34;;;;;;;5.73;2.87;;;11.90;94.00;;;12.22;56.25;98729.25;4846565;28;123382;-77
2023/12/29 02:38:01;;;;;;;2.90;2.47;;;14.10;94.90;;;12.20;55.99;98719.63;4856403;28;115286;-77
2023/12/29 02:40:28;;;;;;;3.13;2.73;;;13.70;94.70;;;12.20;56.71;98714.94;4852436;28;114620;-77
2023/12/29 02:42:55;;;;;;;6.40;2.60;;;11.80;94.00;;;12.20;56.39;98722.41;4874084;28;124282;-77
2023/12/29 02:45:21;;;;;;;3.10;2.30;;;13.00;94.50;;;12.21;56.27;98710.19;4854758;28;123550;-78
2023/12/29 02:47:48;;;;;;;4.70;2.60;;;11.80;93.90;;;12.20;56.22;98703.84;4873419;28;113898;-77
2023/12/29 02:50:17;;;;;;;3.20;2.43;;;12.60;94.30;;;12.21;56.30;98696.34;4856223;28;113797;-77
2023/12/29 02:52:46;;;;;;;3.93;2.50;;;11.80;93.90;;;12.20;56.46;98701.09;4872088;28;124577;-78
2023/12/29 02:55:12;;;;;;;2.93;2.43;;;11.90;94.00;;;12.19;56.64;98704.16;4852688;28;123553;-77
2023/12/29 02:57:39;;;;;;;3.40;2.70;;;9.80;93.80;;;12.17;56.88;98715.59;4852451;28;114397;-77
2023/12/29 03:00:07;;;;;;;2.70;2.30;;;13.20;95.10;;;12.15;57.03;98704.00;4869085;28;113720;-76
2023/12/29 03:02:34;;;;;;;2.90;2.50;;;11.80;94.30;;;12.13;57.19;98714.59;4873109;28;123385;-77
2023/12/29 03:05:02;;;;;;;4.27;2.10;;;11.80;94.50;;;12.08;57.36;98703.66;4893348;28;124194;-77
2023/12/29 03:07:28;;;;;;;3.90;2.50;;;11.80;94.40;;;12.07;57.95;98702.84;4892445;28;114301;-77
2023/12/29 03:09:55;;;;;;;5.30;2.30;;;11.80;94.50;;;12.06;58.01;98694.88;4889475;28;113855;-77
2023/12/29 03:12:21;;;;;;;2.90;2.30;;;11.80;94.70;;;12.04;58.11;98697.97;4892486;28;124103;-77
2023/12/29 03:14:48;;;;;;;2.93;2.33;;;13.00;95.40;;;12.02;58.36;98691.94;4876102;28;123995;-77
2023/12/29 03:17:14;;;;;;;4.47;2.60;;;11.70;95.00;;;12.01;58.75;98692.25;4890849;28;113778;-76
2023/12/29 03:19:41;;;;;;;4.47;2.20;;;13.50;95.80;;;11.98;58.38;98690.13;4859986;28;113198;-76
2023/12/29 03:22:07;;;;;;;2.70;2.40;;;11.70;95.10;;;11.96;58.60;98692.44;4875519;28;123345;-76
2023/12/29 03:24:46;;;;;;;2.60;2.20;;;13.40;95.80;;;11.95;58.68;98699.91;4893682;28;123858;-77
2023/12/29 03:27:16;;;;;;;2.57;2.00;;;11.60;95.40;;;11.94;58.85;98685.25;4864455;28;115334;-77
2023/12/29 03:29:53;;;;;;;3.60;2.40;;;11.60;95.20;;;11.94;58.63;98676.13;4894038;28;114973;-77
2023/12/29 03:32:20;;;;;;;5.23;2.50;;;11.70;95.20;;;11.96;58.61;98670.28;4882177;28;123431;-76
2023/12/29 03:34:46;;;;;;;3.30;2.53;;;14.10;96.50;;;11.94;58.73;98684.44;4894068;28;124122;-76
2023/12/29 03:37:13;;;;;;;3.17;2.40;;;13.30;96.20;;;11.91;58.94;98676.78;4897131;28;114318;-77
2023/12/29 03:39:49;;;;;;;5.20;2.80;;;11.60;95.40;;;11.91;59.13;98672.06;4882872;28;114265;-80
2023/12/29 03:42:16;;;;;;;5.40;2.30;;;13.30;96.20;;;11.91;59.11;98669.28;4900059;28;122996;-77
2023/12/29 03:44:46;;;;;;;3.73;2.70;;;13.60;96.30;;;11.90;59.02;98673.22;4884487;28;122192;-78
2023/12/29 03:47:18;;;;;;;2.43;2.03;;;11.60;95.40;;;11.89;59.50;98660.50;4900764;28;114685;-77
2023/12/29 03:49:46;;;;;;;3.50;1.83;;;11.60;95.40;;;11.87;59.59;98675.78;4875109;28;116031;-78
2023/12/29 03:52:12;;;;;;;3.20;2.40;;;11.60;95.70;;;11.86;59.68;98683.28;4898953;28;123629;-79
2023/12/29 03:54:38;;;;;;;2.87;2.07;;;12.20;95.90;;;11.85;59.69;98681.63;4895281;28;124038;-77
2023/12/29 03:57:05;;;;;;;3.10;2.50;;;14.40;96.90;;;11.83;59.47;98686.69;4901106;28;114247;-77
2023/12/29 03:59:31;;;;;;;5.50;2.30;;;13.70;96.70;;;11.82;59.55;98670.38;4899124;28;113233;-76
2023/12/29 04:01:58;;;;;;;4.13;2.50;;;12.00;96.00;;;11.81;60.20;98666.81;4893798;28;124528;-77
2023/12/29 04:04:24;;;;;;;2.93;1.87;;;13.00;96.40;;;11.79;60.02;98663.53;4883678;28;122069;-76
2023/12/29 04:06:51;;;;;;;2.43;1.80;;;11.60;95.90;;;11.77;60.18;98674.13;4889832;28;114558;-76
2023/12/29 04:09:21;;;;;;;2.33;2.07;;;13.90;97.10;;;11.77;60.01;98678.84;4895299;28;113704;-77
2023/12/29 04:11:48;;;;;;;4.43;2.37;;;13.40;96.80;;;11.73;60.20;98671.19;4854063;28;124540;-76
2023/12/29 04:14:17;;;;;;;2.43;1.90;;;12.00;96.40;;;11.73;60.73;98662.88;4890909;28;123820;-76
2023/12/29 04:16:43;;;;;;;2.50;1.80;;;14.30;97.40;;;11.71;60.61;98675.41;4897100;28;115096;-77
2023/12/29 04:19:11;;;;;;;1.97;1.70;;;13.60;97.20;;;11.69;60.95;98661.09;4893638;28;114858;-77
2023/12/29 04:21:43;;;;;;;5.17;2.10;;;13.30;97.00;;;11.69;61.14;98659.16;4883679;28;124271;-77
2023/12/29 04:24:09;;;;;;;3.67;2.10;;;11.40;96.20;;;11.69;60.81;98655.56;4882390;28;122159;-79
2023/12/29 04:26:39;;;;;;;3.27;2.07;;;14.10;97.80;;;11.64;61.20;98661.25;4867660;28;112139;-77
2023/12/29 04:29:05;;;;;;;3.60;1.97;;;11.40;96.40;;;11.67;61.36;98668.91;4866996;28;113167;-77
2023/12/29 04:31:32;;;;;;;3.03;1.80;;;12.90;97.20;;;11.65;61.18;98665.63;4862147;28;123387;-76
2023/12/29 04:33:58;;;;;;;2.67;2.23;;;12.50;97.10;;;11.65;61.26;98671.19;4863321;28;122139;-76
2023/12/29 04:36:25;;;;;;;3.77;2.13;;;13.90;98.10;;;11.63;61.23;98668.75;4863233;28;113557;-77
2023/12/29 04:38:51;;;;;;;2.10;1.77;;;11.40;96.80;;;11.66;61.18;98661.72;4876270;28;113694;-78
2023/12/29 04:41:20;;;;;;;2.10;1.90;;;12.60;97.30;;;11.64;61.52;98652.94;4875053;28;123257;-77
2023/12/29 04:43:49;;;;;;;3.03;1.80;;;13.10;97.50;;;11.62;61.98;98661.56;4861157;28;122784;-77
2023/12/29 04:46:15;;;;;;;4.47;1.70;;;11.40;96.80;;;11.62;61.84;98652.44;4871259;28;114418;-77
2023/12/29 04:48:42;;;;;;;3.03;2.00;;;14.00;98.00;;;11.60;61.97;98666.59;4871528;28;114202;-77
2023/12/29 04:51:08;;;;;;;2.87;1.90;;;11.40;96.90;;;11.62;61.92;98671.81;4874421;28;123979;-77
2023/12/29 04:53:34;;;;;;;2.77;2.17;;;13.20;98.00;;;11.62;62.33;98677.34;4870104;28;123880;-76
2023/12/29 04:56:01;;;;;;;3.07;2.33;;;13.70;98.10;;;11.60;62.17;98683.19;4877022;28;114583;-77
2023/12/29 04:58:27;;;;;;;2.03;1.83;;;11.40;97.20;;;11.60;62.60;98690.69;4876328;28;113066;-77
2023/12/29 05:00:54;;;;;;;2.60;1.87;;;13.50;98.30;;;11.61;62.55;98686.81;4866870;28;124578;-77
2023/12/29 05:03:20;;;;;;;3.00;2.07;;;13.50;98.20;;;11.61;62.43;98676.56;4872609;28;123649;-78
2023/12/29 05:05:47;;;;;;;3.93;2.27;;;13.90;98.50;;;11.63;62.48;98673.44;4863221;28;113981;-77
2023/12/29 05:08:13;;;;;;;3.30;2.53;;;13.20;98.30;;;11.65;62.62;98685.00;4873945;28;115013;-77
2023/12/29 05:10:40;;;;;;;3.00;2.17;;;13.40;98.40;;;11.64;62.31;98673.13;4873957;28;124804;-77
2023/12/29 05:13:06;;;;;;;2.70;2.33;;;12.60;98.20;;;11.65;62.62;98674.75;4871519;28;122794;-77
2023/12/29 05:15:34;;;;;;;3.20;2.23;;;12.20;98.10;;;11.65;62.79;98682.25;4870868;28;113539;-77
2023/12/29 05:18:01;;;;;;;3.03;2.37;;;11.30;97.50;;;11.68;63.09;98687.13;4869383;28;114226;-77
2023/12/29 05:20:27;;;;;;;2.80;1.80;;;11.30;97.80;;;11.65;62.70;98690.53;4874095;28;124325;-77
2023/12/29 05:22:54;;;;;;;4.10;2.40;;;11.30;97.90;;;11.61;62.95;98686.81;4865861;28;123262;-77
2023/12/29 05:25:22;;;;;;;2.93;2.53;;;12.60;98.40;;;11.60;63.38;98676.84;4873047;28;114315;-79
2023/12/29 05:27:48;;;;;;;3.53;2.60;;;13.10;98.80;;;11.59;63.46;98675.25;4875520;28;113716;-77
2023/12/29 05:30:15;;;;;;;2.17;1.90;;;11.30;98.00;;;11.59;63.70;98683.53;4873588;28;123215;-76
2023/12/29 05:32:42;;;;;;;2.03;1.80;;;11.30;98.10;;;11.58;63.72;98682.72;4893139;28;123795;-77
2023/12/29 05:35:10;;;;;;;6.03;2.40;;;14.20;99.50;;;11.58;63.97;98666.13;4873420;28;114112;-77
2023/12/29 05:37:37;;;;;;;2.73;2.23;;;14.20;99.50;;;11.57;64.13;98674.75;4889362;28;113924;-77
2023/12/29 05:40:07;;;;;;;2.23;2.00;;;11.30;98.40;;;11.58;64.54;98676.34;4891418;28;123811;-77
2023/12/29 05:42:34;;;;;;;3.67;2.40;;;11.30;98.40;;;11.58;64.42;98673.59;4862253;28;123606;-77
2023/12/29 05:45:00;;;;;;;2.50;2.17;;;11.30;98.60;;;11.58;64.83;98679.13;4883787;28;114237;-77
2023/12/29 05:47:27;;;;;;;2.90;2.33;;;11.30;98.80;;;11.56;64.65;98690.53;4890011;28;113973;-77
2023/12/29 05:49:54;;;;;;;3.63;2.20;;;11.20;98.80;;;11.56;65.03;98682.22;4888367;28;123998;-77
2023/12/29 05:52:22;;;;;;;2.20;1.73;;;11.30;99.00;;;11.55;64.84;98677.00;4877207;28;123136;-78
2023/12/29 05:54:48;;;;;;;3.13;2.27;;;11.20;98.90;;;11.53;65.29;98685.66;4891918;28;115096;-76
2023/12/29 05:57:17;;;;;;;3.10;1.73;;;11.30;99.10;;;11.52;65.28;98684.00;4893232;28;114709;-77
2023/12/29 05:59:47;;;;;;;2.80;2.37;;;11.30;99.00;;;11.53;65.49;98673.78;4892574;28;124214;-77
2023/12/29 06:02:13;;;;;;;2.73;2.33;;;12.00;99.70;;;11.53;65.56;98682.06;4885926;28;123853;-77
2023/12/29 06:04:42;;;;;;;2.80;2.43;;;11.30;99.20;;;11.54;65.58;98680.94;4891830;28;113910;-77
2023/12/29 06:07:09;;;;;;;2.70;2.40;;;11.20;99.30;;;11.53;65.72;98685.66;4892112;28;113292;-77
2023/12/29 06:09:39;;;;;;;4.30;2.13;;;11.20;99.40;;;11.55;66.14;98688.06;4875204;28;123578;-77
2023/12/29 06:12:08;;;;;;;2.87;2.13;;;11.20;99.30;;;11.53;65.86;98679.31;4879308;28;122227;-77
2023/12/29 06:14:39;;;;;;;2.77;2.20;;;11.20;99.50;;;11.54;65.77;98694.75;4893013;28;115125;-77
2023/12/29 06:17:06;;;;;;;3.50;1.97;;;11.20;99.50;;;11.55;65.94;98693.59;4889249;28;114181;-77
2023/12/29 06:19:32;;;;;;;4.00;2.23;;;11.30;99.50;;;11.55;65.65;98701.91;4887206;28;124087;-77
2023/12/29 06:21:59;;;;;;;2.80;2.10;;;11.30;99.60;;;11.54;65.87;98686.47;4886458;28;122981;-77
2023/12/29 06:24:26;;;;;;;3.03;2.20;;;11.30;99.70;;;11.55;66.18;98677.00;4878381;28;114256;-77
2023/12/29 06:26:54;;;;;;;4.20;2.60;;;11.20;99.80;;;11.54;66.30;98676.19;4858691;28;113499;-77
2023/12/29 06:29:20;;;;;;;6.33;1.93;;;11.20;99.80;;;11.54;66.41;98675.38;4835127;28;124555;-78
2023/12/29 06:31:47;;;;;;;3.60;2.07;;;11.20;99.90;;;11.55;66.34;98683.34;4890900;28;123859;-77
2023/12/29 06:34:14;;;;;;;2.17;1.77;;;11.20;99.80;;;11.55;66.08;98683.34;4893029;28;113978;-77
2023/12/29 06:36:40;;;;;;;1.90;1.67;;;9.80;99.70;;;11.55;66.04;98682.53;4880406;28;113919;-77
2023/12/29 06:39:07;;;;;;;3.80;1.87;;;11.20;99.90;;;11.54;66.27;98676.19;4892377;28;123219;-76
2023/12/29 06:41:34;;;;;;;5.00;2.50;;;11.20;99.80;;;11.52;66.39;98684.00;4866939;28;123343;-76
2023/12/29 06:44:01;;;;;;;5.83;2.00;;;11.20;99.80;;;11.50;65.96;98661.41;4863716;28;115141;-76
2023/12/29 06:46:27;;;;;;;3.13;2.10;;;11.20;99.90;;;11.51;65.94;98665.78;4857075;28;114020;-76
2023/12/29 06:48:54;;;;;;;2.90;1.70;;;11.20;99.90;;;11.49;66.29;98663.31;4877219;28;125246;-77
2023/12/29 06:51:22;;;;;;;2.83;1.93;;;11.20;99.90;;;11.50;66.73;98664.97;4877089;28;123398;-78
2023/12/29 06:53:49;;;;;;;2.50;1.80;;;11.10;99.90;;;11.50;66.42;98670.50;4873161;28;114177;-77
2023/12/29 06:56:17;;;;;;;3.90;1.97;;;11.20;99.90;;;11.49;66.36;98663.31;4889355;28;114136;-77
2023/12/29 06:58:44;;;;;;;3.07;2.23;;;11.20;99.90;;;11.49;66.46;98671.63;4874285;28;124181;-76
2023/12/29 07:01:13;;;;;;;2.67;2.10;;;11.20;99.90;;;11.49;66.73;98673.56;4883227;28;125642;-80
2023/12/29 07:03:39;;;;;;;6.60;2.00;;;11.20;99.90;;;11.53;66.45;98676.53;4892706;28;114053;-77
2023/12/29 07:06:06;;;;;;;5.80;1.90;;;11.90;99.90;;;11.49;66.73;98685.47;4882170;28;113531;-77
2023/12/29 07:08:35;;;;;;;2.87;2.23;;;11.20;99.90;;;11.50;66.90;98675.22;4889424;28;124635;-77
2023/12/29 07:11:02;;;;;;;4.27;2.10;;;11.20;99.90;;;11.49;66.61;98679.13;4888625;28;123908;-77
2023/12/29 07:13:31;;;;;;;3.07;1.80;;;11.20;99.90;;;11.51;66.40;98676.84;4873207;28;114326;-77
2023/12/29 07:15:57;;;;;;;3.27;1.80;;;11.20;99.90;;;11.52;66.85;98677.66;4887350;28;114076;-77
2023/12/29 07:18:25;;;;;;;2.00;1.70;;;11.20;99.90;;;11.54;66.82;98678.16;4873687;28;124603;-77
2023/12/29 07:20:51;;;;;;;3.03;2.40;;;11.20;99.90;;;11.52;66.58;98677.66;4891097;28;123867;-77
2023/12/29 07:23:18;;;;;;;2.20;1.93;;;11.20;99.90;;;11.55;66.85;98677.00;4891006;28;114037;-77
2023/12/29 07:25:44;;;;;;;2.80;2.00;;;11.20;99.90;;;11.56;66.94;98673.94;4891371;28;115037;-76
2023/12/29 07:28:11;;;;;;;3.17;2.27;;;11.20;99.90;;;11.57;67.10;98660.91;4876042;28;123718;-76
2023/12/29 07:30:38;;;;;;;4.93;2.57;;;11.20;99.90;;;11.58;66.91;98659.75;4890642;28;124266;-78
2023/12/29 07:33:04;;;;;;;3.00;2.20;;;11.20;99.90;;;11.57;66.97;98669.22;4890377;28;115348;-76
2023/12/29 07:35:31;;;;;;;4.43;1.60;;;11.20;99.90;;;11.58;66.82;98657.84;4890713;28;115535;-77
2023/12/29 07:37:57;;;;;;;1.83;1.50;;;11.30;99.90;;;11.64;66.78;98661.25;4876094;28;124047;-76
2023/12/29 07:40:24;;;;;;;2.23;1.80;;;11.30;99.90;;;11.62;66.94;98655.22;4875685;28;123977;-76
2023/12/29 07:42:51;;;;;;;2.30;1.90;;;11.30;99.90;;;11.64;66.80;98661.25;4891235;28;114180;-77
2023/12/29 07:45:20;;;;;;;2.93;1.90;;;11.30;99.90;;;11.65;66.66;98660.09;4877318;28;113717;-77
2023/12/29 07:47:49;;;;;;;2.50;2.20;;;11.30;99.90;;;11.66;67.00;98659.78;4889362;28;124613;-77
2023/12/29 07:50:15;;;;;;;3.20;2.17;;;11.40;99.90;;;11.66;66.66;98659.78;4890706;28;123863;-77
2023/12/29 07:52:44;;;;;;;3.73;2.10;;;11.40;99.90;;;11.69;66.59;98663.88;4858948;28;114256;-78
2023/12/29 07:55:10;;;;;;;3.37;1.63;;;11.40;99.90;;;11.71;66.41;98664.34;4875140;28;113524;-77
2023/12/29 07:57:43;;;;;;;3.90;1.87;;;13.30;99.90;;;11.73;66.57;98670.38;4889164;28;123833;-79
2023/12/29 08:00:10;;;;;;;2.37;1.60;;;11.40;99.90;;;11.74;66.46;98669.25;4890394;28;123855;-77
2023/12/29 08:02:36;;;;;;;2.40;1.73;;;11.40;99.90;;;11.76;66.88;98672.50;4890061;28;113844;-76
2023/12/29 08:05:05;;;;;;;2.90;2.00;;;11.40;99.90;;;11.77;66.68;98685.22;4893439;28;114504;-77
2023/12/29 08:07:32;;;;;;;3.73;2.20;;;11.40;99.90;;;11.77;66.80;98674.13;4869628;28;123284;-77
2023/12/29 08:09:59;;;;;;;2.10;1.80;;;13.30;99.90;;;11.76;66.63;98669.72;4855551;28;122916;-76
2023/12/29 08:12:28;;;;;;;4.00;2.10;;;13.60;99.90;;;11.79;66.93;98671.84;4871116;28;114196;-77
2023/12/29 08:14:57;;;;;;;2.23;1.63;;;11.90;99.90;;;11.82;66.58;98670.38;4868702;28;114275;-78
2023/12/29 08:17:24;;;;;;;2.90;2.13;;;11.40;99.90;;;11.81;66.35;98686.19;4872697;28;124104;-78
2023/12/29 08:19:50;;;;;;;3.83;2.00;;;13.40;99.90;;;11.82;66.62;98685.06;4872090;28;124413;-79
2023/12/29 08:22:17;;;;;;;3.20;1.90;;;11.50;99.90;;;11.85;66.60;98675.28;4868426;28;114948;-77
2023/12/29 08:24:43;;;;;;;3.50;2.50;;;13.20;99.90;;;11.88;66.50;98682.97;4868325;28;113950;-77
2023/12/29 08:27:12;;;;;;;2.60;2.07;;;11.50;99.90;;;11.88;66.31;98681.03;4868829;28;123711;-76
2023/12/29 08:29:38;;;;;;;2.60;1.93;;;11.50;99.90;;;11.90;66.46;98700.06;4868122;28;123677;-78
2023/12/29 08:32:06;;;;;;;2.27;1.87;;;13.20;99.90;;;11.91;66.53;98687.88;4854510;28;114142;-79
2023/12/29 08:34:33;;;;;;;3.60;1.80;;;11.50;99.90;;;11.92;66.33;98683.94;4863745;28;113283;-78
2023/12/29 08:37:00;;;;;;;2.90;2.10;;;13.30;99.90;;;11.93;66.21;98689.16;4838601;29;124022;-76
2023/12/29 08:39:26;;;;;;;2.27;1.80;;;12.20;99.90;;;11.99;66.21;98697.31;4870705;28;123833;-76
2023/12/29 08:41:53;;;;;;;2.97;1.80;;;12.80;99.90;;;12.00;66.51;98690.63;4868517;28;114553;-76
2023/12/29 08:44:20;;;;;;;2.43;2.03;;;12.20;99.90;;;12.03;66.18;98695.53;4871051;28;113898;-83
2023/12/29 08:46:50;;;;;;;6.53;1.90;;;13.50;99.90;;;12.03;66.37;98690.78;4889366;28;123244;-77
2023/12/29 08:49:16;;;;;;;2.33;1.50;;;14.00;99.90;;;12.04;66.17;98688.84;4871991;28;122774;-77
2023/12/29 08:51:43;;;;;;;1.77;1.20;;;11.70;99.90;;;12.06;66.81;98681.03;4871027;28;113963;-76
2023/12/29 08:54:09;;;;;;;2.40;1.80;;;13.70;99.90;;;12.10;66.18;98682.00;4889986;28;114036;-78
2023/12/29 08:56:38;;;;;;;3.13;1.80;;;13.10;99.90;;;12.13;65.89;98678.59;4887454;28;124015;-78
2023/12/29 08:59:04;;;;;;;4.50;2.00;;;11.80;99.90;;;12.12;65.92;98686.09;4884598;28;123726;-77
2023/12/29 09:01:31;;;;;;;3.17;2.07;;;14.70;99.90;;;12.16;65.83;98686.25;4891906;28;114443;-78
2023/12/29 09:03:57;;;;;;;2.70;2.00;;;13.50;99.90;;;12.15;66.05;98695.69;4872477;28;113925;-76
2023/12/29 09:06:24;;;;;;;2.57;1.90;;;11.80;99.90;;;12.19;65.87;98684.78;4862207;28;123690;-76
2023/12/29 09:08:50;;;;;;;2.67;1.70;;;11.80;99.90;;;12.20;65.50;98681.69;4859108;28;123326;-81
2023/12/29 09:11:17;;;;;;;1.70;1.50;;;13.40;99.90;;;12.23;65.48;98683.81;4887418;28;115049;-77
2023/12/29 09:13:43;;;;;;;3.83;1.90;;;11.90;99.90;;;12.25;65.18;98692.63;4895429;28;114450;-77
2023/12/29 09:16:10;;;;;;;3.67;1.87;;;11.90;99.90;;;12.23;65.31;98680.22;4890376;28;123978;-78
2023/12/29 09:18:39;;;;;;;2.40;1.80;;;13.80;99.90;;;12.26;65.18;98674.84;4890911;28;123634;-77
2023/12/29 09:21:06;;;;;;;2.20;1.70;;;12.10;99.90;;;12.28;65.07;98691.97;4876241;28;114487;-76
2023/12/29 09:23:33;;;;;;;1.57;1.37;;;13.00;99.90;;;12.28;65.09;98678.09;4877823;28;113575;-78
2023/12/29 09:26:02;;;;;;;2.30;2.00;;;14.10;99.90;;;12.35;64.97;98689.50;4891880;28;124100;-77
2023/12/29 09:28:29;;;;;;;1.97;1.70;;;11.90;99.90;;;12.34;64.82;98696.19;4871703;28;123701;-77
2023/12/29 09:30:57;;;;;;;3.60;1.90;;;10.50;99.40;;;12.37;64.64;98695.53;4894418;28;114229;-77
2023/12/29 09:33:24;;;;;;;2.90;1.90;;;14.00;99.90;;;12.41;64.62;98687.34;4893142;28;114070;-77
2023/12/29 09:35:51;;;;;;;1.77;1.53;;;12.00;99.90;;;12.43;64.69;98693.41;4892247;28;124836;-77
2023/12/29 09:38:19;;;;;;;2.07;1.80;;;12.00;99.90;;;12.47;64.91;98699.13;4883281;28;124443;-78
2023/12/29 09:40:49;;;;;;;2.20;1.70;;;10.00;99.00;;;12.49;64.68;98710.66;4863062;28;113600;-79
2023/12/29 09:43:16;;;;;;;2.13;1.53;;;14.10;99.90;;;12.50;64.56;98706.78;4861607;28;113564;-79
2023/12/29 09:45:50;;;;;;;3.77;1.67;;;12.10;99.90;;;12.50;64.72;98709.53;4871551;28;124045;-78
2023/12/29 09:48:19;;;;;;;2.03;1.47;;;14.10;99.90;;;12.51;64.91;98727.78;4891004;28;122856;-78
2023/12/29 09:50:50;;;;;;;1.50;1.27;;;12.10;99.90;;;12.50;64.48;98721.44;4894553;28;114279;-79
2023/12/29 09:53:17;;;;;;;2.20;1.90;;;12.10;99.90;;;12.50;64.76;98713.13;4894538;28;113948;-79
2023/12/29 09:55:46;;;;;;;2.23;1.50;;;12.20;99.90;;;12.53;64.83;98708.88;4892089;28;124109;-78
2023/12/29 09:58:12;;;;;;;1.50;1.33;;;13.70;99.90;;;12.55;64.82;98706.59;4885334;28;123014;-79
2023/12/29 10:00:39;;;;;;;1.80;1.50;;;12.30;99.90;;;12.58;64.80;98717.84;4887746;28;116087;-78
2023/12/29 10:03:06;;;;;;;1.63;1.30;;;12.20;99.90;;;12.58;64.70;98722.56;4875757;28;114745;-77
2023/12/29 10:05:38;;;;;;;2.10;1.67;;;13.40;99.90;;;12.60;64.67;98707.25;4886405;28;124034;-80
2023/12/29 10:08:14;;;;;;;2.03;1.70;;;12.30;99.90;;;12.65;64.65;98699.88;4901920;28;123766;-84
2023/12/29 11:48:57;;;;;;;3.40;1.30;;;13.00;96.00;;;14.63;54.52;98612.16;5151428;27;96537;-78
2023/12/29 11:51:45;;;;;;;1.37;1.27;;;14.30;94.70;;;14.58;53.92;98616.78;5113676;27;107286;-76
2023/12/29 11:54:26;;;;;;;2.67;1.70;;;14.30;94.20;;;14.58;54.29;98610.41;5112516;27;123530;-78